ADDS METAR Data

Data at: 0745 UTC 24 Oct 2017

METAR for:KUUU (Newport State Arpt, RI, US)
Text:KUUU 240653Z AUTO 14015G23KT 10SM OVC065 19/18 A3008 RMK AO2 SLP183 T01890178
Temperature: 18.9°C ( 66°F)
Dewpoint: 17.8°C ( 64°F) [RH = 93%]
Pressure (altimeter):30.08 inches Hg (1018.7 mb) [Sea level pressure: 1018.3 mb]
Winds:from the SE (140 degrees) at 17 MPH (15 knots; 7.7 m/s) gusting to 26 MPH (23 knots; 11.8 m/s)
Visibility:10 or more sm (16+ km)
Ceiling:6500 feet AGL
Clouds: overcast cloud deck at 6500 feet AGL
QC Flag:automated observation with no human augmentation